sensor_id;sensor_type;location;lat;lon;timestamp;P1;durP1;ratioP1;P2;durP2;ratioP2
37517;SDS011;23366;52.498;13.446;2023-02-15T00:01:44;25.00;;;11.40;;
37517;SDS011;23366;52.498;13.446;2023-02-15T00:04:12;24.10;;;12.25;;
37517;SDS011;23366;52.498;13.446;2023-02-15T00:06:39;24.35;;;13.30;;
37517;SDS011;23366;52.498;13.446;2023-02-15T00:09:04;30.30;;;12.75;;
37517;SDS011;23366;52.498;13.446;2023-02-15T00:11:30;27.05;;;12.05;;
37517;SDS011;23366;52.498;13.446;2023-02-15T00:14:09;21.70;;;11.27;;
37517;SDS011;23366;52.498;13.446;2023-02-15T00:16:37;29.08;;;13.77;;
37517;SDS011;23366;52.498;13.446;2023-02-15T00:19:04;25.20;;;12.93;;
37517;SDS011;23366;52.498;13.446;2023-02-15T00:21:30;34.40;;;14.20;;
37517;SDS011;23366;52.498;13.446;2023-02-15T00:23:58;29.52;;;14.23;;
37517;SDS011;23366;52.498;13.446;2023-02-15T00:26:25;27.15;;;12.43;;
37517;SDS011;23366;52.498;13.446;2023-02-15T00:28:51;35.90;;;12.77;;
37517;SDS011;23366;52.498;13.446;2023-02-15T00:31:17;25.00;;;14.02;;
37517;SDS011;23366;52.498;13.446;2023-02-15T00:33:43;26.30;;;12.85;;
37517;SDS011;23366;52.498;13.446;2023-02-15T00:36:09;31.40;;;14.13;;
37517;SDS011;23366;52.498;13.446;2023-02-15T00:38:35;28.23;;;14.27;;
37517;SDS011;23366;52.498;13.446;2023-02-15T00:41:02;32.40;;;13.63;;
37517;SDS011;23366;52.498;13.446;2023-02-15T00:43:29;28.88;;;14.38;;
37517;SDS011;23366;52.498;13.446;2023-02-15T00:45:55;29.20;;;13.88;;
37517;SDS011;23366;52.498;13.446;2023-02-15T00:48:22;30.15;;;13.95;;
37517;SDS011;23366;52.498;13.446;2023-02-15T00:50:51;23.63;;;12.30;;
37517;SDS011;23366;52.498;13.446;2023-02-15T00:53:18;32.28;;;16.48;;
37517;SDS011;23366;52.498;13.446;2023-02-15T00:55:45;33.33;;;13.68;;
37517;SDS011;23366;52.498;13.446;2023-02-15T00:58:10;31.15;;;13.57;;
37517;SDS011;23366;52.498;13.446;2023-02-15T01:00:37;30.60;;;14.82;;
37517;SDS011;23366;52.498;13.446;2023-02-15T01:03:04;27.70;;;14.02;;
37517;SDS011;23366;52.498;13.446;2023-02-15T01:05:30;28.33;;;15.25;;
37517;SDS011;23366;52.498;13.446;2023-02-15T01:07:57;32.97;;;14.43;;
37517;SDS011;23366;52.498;13.446;2023-02-15T01:10:23;34.65;;;16.30;;
37517;SDS011;23366;52.498;13.446;2023-02-15T01:12:49;22.75;;;12.13;;
37517;SDS011;23366;52.498;13.446;2023-02-15T01:15:16;31.17;;;14.85;;
37517;SDS011;23366;52.498;13.446;2023-02-15T01:17:41;39.30;;;15.98;;
37517;SDS011;23366;52.498;13.446;2023-02-15T01:20:09;34.28;;;16.27;;
37517;SDS011;23366;52.498;13.446;2023-02-15T01:22:35;29.02;;;14.15;;
37517;SDS011;23366;52.498;13.446;2023-02-15T01:25:00;29.92;;;13.85;;
37517;SDS011;23366;52.498;13.446;2023-02-15T01:27:26;31.50;;;15.05;;
37517;SDS011;23366;52.498;13.446;2023-02-15T01:29:51;25.85;;;14.00;;
37517;SDS011;23366;52.498;13.446;2023-02-15T01:32:17;31.02;;;14.48;;
37517;SDS011;23366;52.498;13.446;2023-02-15T01:34:42;28.13;;;13.07;;
37517;SDS011;23366;52.498;13.446;2023-02-15T01:37:08;27.45;;;14.63;;
37517;SDS011;23366;52.498;13.446;2023-02-15T01:39:33;31.83;;;15.70;;
37517;SDS011;23366;52.498;13.446;2023-02-15T01:41:59;29.70;;;15.23;;
37517;SDS011;23366;52.498;13.446;2023-02-15T01:47:22;34.30;;;16.17;;
37517;SDS011;23366;52.498;13.446;2023-02-15T01:50:17;36.85;;;17.58;;
37517;SDS011;23366;52.498;13.446;2023-02-15T01:52:52;37.92;;;16.98;;
37517;SDS011;23366;52.498;13.446;2023-02-15T01:55:23;34.28;;;15.13;;
37517;SDS011;23366;52.498;13.446;2023-02-15T01:57:51;45.00;;;18.33;;
37517;SDS011;23366;52.498;13.446;2023-02-15T02:00:17;39.45;;;16.30;;
37517;SDS011;23366;52.498;13.446;2023-02-15T02:02:44;32.25;;;14.70;;
37517;SDS011;23366;52.498;13.446;2023-02-15T02:05:11;31.95;;;16.33;;
37517;SDS011;23366;52.498;13.446;2023-02-15T02:07:38;31.75;;;16.13;;
37517;SDS011;23366;52.498;13.446;2023-02-15T02:10:07;36.88;;;16.48;;
37517;SDS011;23366;52.498;13.446;2023-02-15T02:12:34;36.35;;;16.35;;
37517;SDS011;23366;52.498;13.446;2023-02-15T02:15:02;33.72;;;15.18;;
37517;SDS011;23366;52.498;13.446;2023-02-15T02:23:04;35.10;;;14.75;;
37517;SDS011;23366;52.498;13.446;2023-02-15T02:40:25;44.65;;;19.27;;
37517;SDS011;23366;52.498;13.446;2023-02-15T02:43:04;46.00;;;20.30;;
37517;SDS011;23366;52.498;13.446;2023-02-15T02:45:47;41.97;;;17.48;;
37517;SDS011;23366;52.498;13.446;2023-02-15T02:48:21;37.75;;;17.00;;
37517;SDS011;23366;52.498;13.446;2023-02-15T02:53:17;40.35;;;17.77;;
37517;SDS011;23366;52.498;13.446;2023-02-15T02:55:44;39.78;;;17.02;;
37517;SDS011;23366;52.498;13.446;2023-02-15T02:58:16;50.42;;;19.55;;
37517;SDS011;23366;52.498;13.446;2023-02-15T03:03:24;46.70;;;19.80;;
37517;SDS011;23366;52.498;13.446;2023-02-15T03:05:57;52.30;;;19.00;;
37517;SDS011;23366;52.498;13.446;2023-02-15T03:08:32;45.08;;;19.48;;
37517;SDS011;23366;52.498;13.446;2023-02-15T03:11:07;51.63;;;20.02;;
37517;SDS011;23366;52.498;13.446;2023-02-15T03:13:34;50.42;;;20.02;;
37517;SDS011;23366;52.498;13.446;2023-02-15T03:16:00;42.80;;;18.30;;
37517;SDS011;23366;52.498;13.446;2023-02-15T03:18:50;44.00;;;21.35;;
37517;SDS011;23366;52.498;13.446;2023-02-15T03:21:25;47.35;;;18.17;;
37517;SDS011;23366;52.498;13.446;2023-02-15T03:24:19;47.60;;;18.75;;
37517;SDS011;23366;52.498;13.446;2023-02-15T03:26:47;47.95;;;20.70;;
37517;SDS011;23366;52.498;13.446;2023-02-15T03:29:16;57.03;;;20.13;;
37517;SDS011;23366;52.498;13.446;2023-02-15T03:31:45;55.13;;;21.25;;
37517;SDS011;23366;52.498;13.446;2023-02-15T03:34:14;49.35;;;19.77;;
37517;SDS011;23366;52.498;13.446;2023-02-15T03:36:44;47.90;;;19.13;;
37517;SDS011;23366;52.498;13.446;2023-02-15T03:41:48;47.65;;;20.05;;
37517;SDS011;23366;52.498;13.446;2023-02-15T03:44:28;42.80;;;19.25;;
37517;SDS011;23366;52.498;13.446;2023-02-15T03:51:55;49.90;;;18.40;;
37517;SDS011;23366;52.498;13.446;2023-02-15T03:54:27;47.17;;;19.05;;
37517;SDS011;23366;52.498;13.446;2023-02-15T03:57:07;46.22;;;19.27;;
37517;SDS011;23366;52.498;13.446;2023-02-15T03:59:54;47.53;;;18.98;;
37517;SDS011;23366;52.498;13.446;2023-02-15T04:05:22;50.95;;;21.05;;
37517;SDS011;23366;52.498;13.446;2023-02-15T04:07:48;44.63;;;18.10;;
37517;SDS011;23366;52.498;13.446;2023-02-15T04:10:14;47.90;;;18.10;;
37517;SDS011;23366;52.498;13.446;2023-02-15T04:12:58;44.80;;;16.88;;
37517;SDS011;23366;52.498;13.446;2023-02-15T04:15:24;51.47;;;18.42;;
37517;SDS011;23366;52.498;13.446;2023-02-15T04:18:08;45.25;;;20.23;;
37517;SDS011;23366;52.498;13.446;2023-02-15T04:20:33;43.78;;;19.02;;
37517;SDS011;23366;52.498;13.446;2023-02-15T04:23:18;36.50;;;17.15;;
37517;SDS011;23366;52.498;13.446;2023-02-15T04:26:05;51.13;;;20.77;;
37517;SDS011;23366;52.498;13.446;2023-02-15T04:28:31;48.85;;;18.08;;
37517;SDS011;23366;52.498;13.446;2023-02-15T04:30:56;43.17;;;17.83;;
37517;SDS011;23366;52.498;13.446;2023-02-15T04:33:22;48.67;;;18.95;;
37517;SDS011;23366;52.498;13.446;2023-02-15T04:35:47;53.40;;;18.48;;
37517;SDS011;23366;52.498;13.446;2023-02-15T04:38:13;33.50;;;16.02;;
37517;SDS011;23366;52.498;13.446;2023-02-15T04:40:39;49.85;;;18.27;;
37517;SDS011;23366;52.498;13.446;2023-02-15T04:43:04;51.40;;;20.92;;
37517;SDS011;23366;52.498;13.446;2023-02-15T04:45:30;44.67;;;18.52;;
37517;SDS011;23366;52.498;13.446;2023-02-15T04:47:55;47.45;;;21.50;;
37517;SDS011;23366;52.498;13.446;2023-02-15T04:50:21;51.40;;;21.10;;
37517;SDS011;23366;52.498;13.446;2023-02-15T04:52:46;43.00;;;18.25;;
37517;SDS011;23366;52.498;13.446;2023-02-15T04:55:12;45.50;;;17.85;;
37517;SDS011;23366;52.498;13.446;2023-02-15T04:57:37;41.40;;;16.13;;
37517;SDS011;23366;52.498;13.446;2023-02-15T05:00:03;41.28;;;15.60;;
37517;SDS011;23366;52.498;13.446;2023-02-15T05:02:29;47.72;;;20.42;;
37517;SDS011;23366;52.498;13.446;2023-02-15T05:04:55;36.83;;;16.27;;
37517;SDS011;23366;52.498;13.446;2023-02-15T05:07:20;44.60;;;18.15;;
37517;SDS011;23366;52.498;13.446;2023-02-15T05:09:46;50.67;;;16.30;;
37517;SDS011;23366;52.498;13.446;2023-02-15T05:12:11;52.38;;;20.05;;
37517;SDS011;23366;52.498;13.446;2023-02-15T05:14:37;47.33;;;16.73;;
37517;SDS011;23366;52.498;13.446;2023-02-15T05:17:03;43.30;;;17.20;;
37517;SDS011;23366;52.498;13.446;2023-02-15T05:19:30;50.70;;;18.45;;
37517;SDS011;23366;52.498;13.446;2023-02-15T05:21:55;42.90;;;16.90;;
37517;SDS011;23366;52.498;13.446;2023-02-15T05:24:21;43.70;;;17.50;;
37517;SDS011;23366;52.498;13.446;2023-02-15T05:27:05;46.28;;;17.92;;
37517;SDS011;23366;52.498;13.446;2023-02-15T05:29:49;39.50;;;16.50;;
37517;SDS011;23366;52.498;13.446;2023-02-15T05:32:16;53.33;;;19.52;;
37517;SDS011;23366;52.498;13.446;2023-02-15T05:34:41;45.78;;;17.83;;
37517;SDS011;23366;52.498;13.446;2023-02-15T05:37:07;38.80;;;18.60;;
37517;SDS011;23366;52.498;13.446;2023-02-15T05:39:33;43.47;;;17.80;;
37517;SDS011;23366;52.498;13.446;2023-02-15T05:41:59;44.45;;;17.60;;
37517;SDS011;23366;52.498;13.446;2023-02-15T05:44:25;41.25;;;19.30;;
37517;SDS011;23366;52.498;13.446;2023-02-15T05:46:50;45.25;;;18.75;;
37517;SDS011;23366;52.498;13.446;2023-02-15T05:49:16;38.80;;;16.92;;
37517;SDS011;23366;52.498;13.446;2023-02-15T05:51:41;46.08;;;19.30;;
37517;SDS011;23366;52.498;13.446;2023-02-15T05:54:07;58.47;;;20.15;;
37517;SDS011;23366;52.498;13.446;2023-02-15T05:56:32;50.25;;;19.10;;
37517;SDS011;23366;52.498;13.446;2023-02-15T05:58:58;52.60;;;18.30;;
37517;SDS011;23366;52.498;13.446;2023-02-15T06:01:24;45.45;;;17.88;;
37517;SDS011;23366;52.498;13.446;2023-02-15T06:03:49;49.22;;;18.13;;
37517;SDS011;23366;52.498;13.446;2023-02-15T06:06:15;48.05;;;16.85;;
37517;SDS011;23366;52.498;13.446;2023-02-15T06:08:40;52.45;;;19.17;;
37517;SDS011;23366;52.498;13.446;2023-02-15T06:11:06;56.83;;;18.38;;
37517;SDS011;23366;52.498;13.446;2023-02-15T06:13:32;38.67;;;15.82;;
37517;SDS011;23366;52.498;13.446;2023-02-15T06:15:58;53.03;;;19.02;;
37517;SDS011;23366;52.498;13.446;2023-02-15T06:18:24;60.53;;;21.25;;
37517;SDS011;23366;52.498;13.446;2023-02-15T06:20:50;51.72;;;19.73;;
37517;SDS011;23366;52.498;13.446;2023-02-15T06:23:18;53.88;;;21.17;;
37517;SDS011;23366;52.498;13.446;2023-02-15T06:25:44;53.03;;;18.38;;
37517;SDS011;23366;52.498;13.446;2023-02-15T06:28:10;46.90;;;18.77;;
37517;SDS011;23366;52.498;13.446;2023-02-15T06:30:36;42.03;;;17.73;;
37517;SDS011;23366;52.498;13.446;2023-02-15T06:33:01;53.20;;;18.70;;
37517;SDS011;23366;52.498;13.446;2023-02-15T06:35:27;54.30;;;21.63;;
37517;SDS011;23366;52.498;13.446;2023-02-15T06:37:53;56.25;;;23.05;;
37517;SDS011;23366;52.498;13.446;2023-02-15T06:40:18;51.03;;;18.58;;
37517;SDS011;23366;52.498;13.446;2023-02-15T06:42:44;52.00;;;21.27;;
37517;SDS011;23366;52.498;13.446;2023-02-15T06:45:10;66.70;;;26.55;;
37517;SDS011;23366;52.498;13.446;2023-02-15T06:47:36;56.50;;;20.60;;
37517;SDS011;23366;52.498;13.446;2023-02-15T06:50:02;62.30;;;20.92;;
37517;SDS011;23366;52.498;13.446;2023-02-15T06:52:33;71.30;;;22.80;;
37517;SDS011;23366;52.498;13.446;2023-02-15T06:54:58;44.03;;;19.45;;
37517;SDS011;23366;52.498;13.446;2023-02-15T06:57:24;48.17;;;19.90;;
37517;SDS011;23366;52.498;13.446;2023-02-15T06:59:49;59.17;;;21.13;;
37517;SDS011;23366;52.498;13.446;2023-02-15T07:02:15;54.88;;;19.52;;
37517;SDS011;23366;52.498;13.446;2023-02-15T07:04:40;52.80;;;17.25;;
37517;SDS011;23366;52.498;13.446;2023-02-15T07:07:10;43.30;;;15.38;;
37517;SDS011;23366;52.498;13.446;2023-02-15T07:09:36;51.05;;;20.25;;
37517;SDS011;23366;52.498;13.446;2023-02-15T07:12:02;53.70;;;20.25;;
37517;SDS011;23366;52.498;13.446;2023-02-15T07:14:46;44.50;;;20.17;;
37517;SDS011;23366;52.498;13.446;2023-02-15T07:17:11;50.83;;;21.92;;
37517;SDS011;23366;52.498;13.446;2023-02-15T07:19:37;49.70;;;18.33;;
37517;SDS011;23366;52.498;13.446;2023-02-15T07:22:02;59.70;;;21.13;;
37517;SDS011;23366;52.498;13.446;2023-02-15T07:24:29;41.58;;;17.58;;
37517;SDS011;23366;52.498;13.446;2023-02-15T07:26:55;50.20;;;20.23;;
37517;SDS011;23366;52.498;13.446;2023-02-15T07:29:22;49.88;;;18.02;;
37517;SDS011;23366;52.498;13.446;2023-02-15T07:31:48;43.42;;;18.40;;
37517;SDS011;23366;52.498;13.446;2023-02-15T07:34:13;39.65;;;15.68;;
37517;SDS011;23366;52.498;13.446;2023-02-15T07:36:39;51.40;;;16.80;;
37517;SDS011;23366;52.498;13.446;2023-02-15T07:39:04;47.80;;;17.73;;
37517;SDS011;23366;52.498;13.446;2023-02-15T07:41:29;48.45;;;18.80;;
37517;SDS011;23366;52.498;13.446;2023-02-15T07:43:55;51.95;;;18.45;;
37517;SDS011;23366;52.498;13.446;2023-02-15T07:46:20;53.05;;;19.85;;
37517;SDS011;23366;52.498;13.446;2023-02-15T07:48:46;52.67;;;20.25;;
37517;SDS011;23366;52.498;13.446;2023-02-15T07:51:13;43.10;;;17.73;;
37517;SDS011;23366;52.498;13.446;2023-02-15T07:53:39;44.72;;;17.45;;
37517;SDS011;23366;52.498;13.446;2023-02-15T07:56:06;49.88;;;19.17;;
37517;SDS011;23366;52.498;13.446;2023-02-15T07:58:35;45.53;;;16.67;;
37517;SDS011;23366;52.498;13.446;2023-02-15T08:01:15;51.20;;;19.97;;
37517;SDS011;23366;52.498;13.446;2023-02-15T08:03:49;45.10;;;19.15;;
37517;SDS011;23366;52.498;13.446;2023-02-15T08:06:15;42.03;;;16.90;;
37517;SDS011;23366;52.498;13.446;2023-02-15T08:08:41;48.08;;;17.10;;
37517;SDS011;23366;52.498;13.446;2023-02-15T08:11:23;46.00;;;19.67;;
37517;SDS011;23366;52.498;13.446;2023-02-15T08:16:45;42.65;;;17.35;;
37517;SDS011;23366;52.498;13.446;2023-02-15T08:19:19;53.88;;;18.25;;
37517;SDS011;23366;52.498;13.446;2023-02-15T08:21:48;48.60;;;18.13;;
37517;SDS011;23366;52.498;13.446;2023-02-15T08:24:17;38.97;;;18.42;;
37517;SDS011;23366;52.498;13.446;2023-02-15T08:26:44;47.17;;;19.08;;
37517;SDS011;23366;52.498;13.446;2023-02-15T08:29:11;36.50;;;16.20;;
37517;SDS011;23366;52.498;13.446;2023-02-15T08:31:38;52.70;;;19.15;;
37517;SDS011;23366;52.498;13.446;2023-02-15T08:34:06;50.88;;;16.88;;
37517;SDS011;23366;52.498;13.446;2023-02-15T08:36:32;54.78;;;17.48;;
37517;SDS011;23366;52.498;13.446;2023-02-15T08:38:58;47.85;;;17.10;;
37517;SDS011;23366;52.498;13.446;2023-02-15T08:41:26;38.30;;;15.38;;
37517;SDS011;23366;52.498;13.446;2023-02-15T08:43:55;51.60;;;20.35;;
37517;SDS011;23366;52.498;13.446;2023-02-15T08:46:23;48.03;;;19.45;;
37517;SDS011;23366;52.498;13.446;2023-02-15T08:48:50;53.42;;;18.30;;
37517;SDS011;23366;52.498;13.446;2023-02-15T08:51:16;38.83;;;16.90;;
37517;SDS011;23366;52.498;13.446;2023-02-15T08:53:47;48.03;;;17.33;;
37517;SDS011;23366;52.498;13.446;2023-02-15T08:56:14;47.33;;;17.10;;
37517;SDS011;23366;52.498;13.446;2023-02-15T08:58:40;40.75;;;18.58;;
37517;SDS011;23366;52.498;13.446;2023-02-15T09:01:09;43.78;;;18.67;;
37517;SDS011;23366;52.498;13.446;2023-02-15T09:03:35;44.35;;;18.10;;
37517;SDS011;23366;52.498;13.446;2023-02-15T09:06:01;35.70;;;14.68;;
37517;SDS011;23366;52.498;13.446;2023-02-15T09:08:27;38.78;;;16.83;;
37517;SDS011;23366;52.498;13.446;2023-02-15T09:10:53;45.03;;;18.95;;
37517;SDS011;23366;52.498;13.446;2023-02-15T09:13:19;36.50;;;16.33;;
37517;SDS011;23366;52.498;13.446;2023-02-15T09:15:45;43.20;;;15.98;;
37517;SDS011;23366;52.498;13.446;2023-02-15T09:18:11;35.92;;;16.45;;
37517;SDS011;23366;52.498;13.446;2023-02-15T09:20:41;38.05;;;15.63;;
37517;SDS011;23366;52.498;13.446;2023-02-15T09:23:08;33.13;;;16.30;;
37517;SDS011;23366;52.498;13.446;2023-02-15T09:25:33;34.83;;;16.92;;
37517;SDS011;23366;52.498;13.446;2023-02-15T09:27:59;45.70;;;17.52;;
37517;SDS011;23366;52.498;13.446;2023-02-15T09:30:25;40.42;;;17.70;;
37517;SDS011;23366;52.498;13.446;2023-02-15T09:32:50;37.92;;;18.08;;
37517;SDS011;23366;52.498;13.446;2023-02-15T09:35:16;41.28;;;15.25;;
37517;SDS011;23366;52.498;13.446;2023-02-15T09:37:41;36.05;;;17.00;;
37517;SDS011;23366;52.498;13.446;2023-02-15T09:40:07;49.25;;;18.38;;
37517;SDS011;23366;52.498;13.446;2023-02-15T09:43:19;36.65;;;15.18;;
37517;SDS011;23366;52.498;13.446;2023-02-15T09:54:17;40.50;;;16.38;;
37517;SDS011;23366;52.498;13.446;2023-02-15T09:57:00;30.85;;;14.48;;
37517;SDS011;23366;52.498;13.446;2023-02-15T09:59:45;25.83;;;13.00;;
37517;SDS011;23366;52.498;13.446;2023-02-15T10:02:33;31.98;;;13.60;;
37517;SDS011;23366;52.498;13.446;2023-02-15T10:05:48;29.70;;;14.43;;
37517;SDS011;23366;52.498;13.446;2023-02-15T10:21:54;29.10;;;13.27;;
37517;SDS011;23366;52.498;13.446;2023-02-15T10:24:33;27.92;;;14.20;;
37517;SDS011;23366;52.498;13.446;2023-02-15T10:27:07;28.42;;;13.52;;
37517;SDS011;23366;52.498;13.446;2023-02-15T10:29:38;31.88;;;14.88;;
37517;SDS011;23366;52.498;13.446;2023-02-15T10:32:12;33.00;;;14.07;;
37517;SDS011;23366;52.498;13.446;2023-02-15T10:37:30;26.58;;;12.55;;
37517;SDS011;23366;52.498;13.446;2023-02-15T10:49:01;28.00;;;13.18;;
37517;SDS011;23366;52.498;13.446;2023-02-15T10:51:45;30.25;;;13.73;;
37517;SDS011;23366;52.498;13.446;2023-02-15T11:00:06;28.77;;;14.38;;
37517;SDS011;23366;52.498;13.446;2023-02-15T11:02:54;31.50;;;13.60;;
37517;SDS011;23366;52.498;13.446;2023-02-15T11:08:22;30.10;;;13.65;;
37517;SDS011;23366;52.498;13.446;2023-02-15T11:10:54;31.45;;;14.13;;
37517;SDS011;23366;52.498;13.446;2023-02-15T11:13:23;25.42;;;14.00;;
37517;SDS011;23366;52.498;13.446;2023-02-15T11:16:15;25.00;;;13.27;;
37517;SDS011;23366;52.498;13.446;2023-02-15T11:21:11;27.60;;;13.27;;
37517;SDS011;23366;52.498;13.446;2023-02-15T11:23:45;27.70;;;13.25;;
37517;SDS011;23366;52.498;13.446;2023-02-15T11:26:14;29.50;;;13.90;;
37517;SDS011;23366;52.498;13.446;2023-02-15T11:29:01;30.10;;;13.02;;
37517;SDS011;23366;52.498;13.446;2023-02-15T11:31:49;31.75;;;13.02;;
37517;SDS011;23366;52.498;13.446;2023-02-15T11:36:54;27.70;;;12.98;;
37517;SDS011;23366;52.498;13.446;2023-02-15T11:39:26;31.15;;;13.98;;
37517;SDS011;23366;52.498;13.446;2023-02-15T11:41:55;37.08;;;15.32;;
37517;SDS011;23366;52.498;13.446;2023-02-15T11:44:25;24.65;;;12.18;;
37517;SDS011;23366;52.498;13.446;2023-02-15T11:46:57;29.70;;;13.60;;
37517;SDS011;23366;52.498;13.446;2023-02-15T11:52:10;29.02;;;13.43;;
37517;SDS011;23366;52.498;13.446;2023-02-15T11:54:41;25.73;;;12.90;;
37517;SDS011;23366;52.498;13.446;2023-02-15T11:57:28;33.28;;;13.27;;
37517;SDS011;23366;52.498;13.446;2023-02-15T12:02:37;28.35;;;13.73;;
37517;SDS011;23366;52.498;13.446;2023-02-15T12:05:13;25.00;;;11.55;;
37517;SDS011;23366;52.498;13.446;2023-02-15T12:07:45;24.20;;;12.25;;
37517;SDS011;23366;52.498;13.446;2023-02-15T12:10:19;22.52;;;11.50;;
37517;SDS011;23366;52.498;13.446;2023-02-15T12:13:08;26.50;;;13.52;;
37517;SDS011;23366;52.498;13.446;2023-02-15T12:15:34;27.00;;;12.70;;
37517;SDS011;23366;52.498;13.446;2023-02-15T12:18:01;25.98;;;12.40;;
37517;SDS011;23366;52.498;13.446;2023-02-15T12:20:33;28.20;;;13.90;;
37517;SDS011;23366;52.498;13.446;2023-02-15T12:23:03;26.65;;;12.77;;
37517;SDS011;23366;52.498;13.446;2023-02-15T12:28:02;25.58;;;12.32;;
37517;SDS011;23366;52.498;13.446;2023-02-15T12:30:30;27.55;;;12.18;;
37517;SDS011;23366;52.498;13.446;2023-02-15T12:33:03;25.85;;;11.88;;
37517;SDS011;23366;52.498;13.446;2023-02-15T12:35:39;28.92;;;14.57;;
37517;SDS011;23366;52.498;13.446;2023-02-15T12:38:20;27.35;;;12.70;;
37517;SDS011;23366;52.498;13.446;2023-02-15T12:41:00;27.92;;;13.00;;
37517;SDS011;23366;52.498;13.446;2023-02-15T12:43:26;26.10;;;12.60;;
37517;SDS011;23366;52.498;13.446;2023-02-15T12:46:43;34.38;;;14.40;;
37517;SDS011;23366;52.498;13.446;2023-02-15T12:51:45;26.95;;;12.20;;
37517;SDS011;23366;52.498;13.446;2023-02-15T12:54:16;28.75;;;12.23;;
37517;SDS011;23366;52.498;13.446;2023-02-15T12:56:50;25.33;;;13.00;;
37517;SDS011;23366;52.498;13.446;2023-02-15T12:59:16;22.33;;;13.00;;
37517;SDS011;23366;52.498;13.446;2023-02-15T13:01:47;27.58;;;11.75;;
37517;SDS011;23366;52.498;13.446;2023-02-15T13:04:26;25.40;;;12.45;;
37517;SDS011;23366;52.498;13.446;2023-02-15T13:06:55;25.58;;;11.20;;
37517;SDS011;23366;52.498;13.446;2023-02-15T13:14:51;25.00;;;12.07;;
37517;SDS011;23366;52.498;13.446;2023-02-15T13:17:32;29.35;;;11.93;;
37517;SDS011;23366;52.498;13.446;2023-02-15T13:20:18;22.45;;;11.35;;
37517;SDS011;23366;52.498;13.446;2023-02-15T13:22:48;23.02;;;12.27;;
37517;SDS011;23366;52.498;13.446;2023-02-15T13:25:21;24.90;;;11.85;;
37517;SDS011;23366;52.498;13.446;2023-02-15T13:27:50;22.20;;;11.57;;
37517;SDS011;23366;52.498;13.446;2023-02-15T13:30:25;30.60;;;14.35;;
37517;SDS011;23366;52.498;13.446;2023-02-15T13:33:03;17.27;;;8.40;;
37517;SDS011;23366;52.498;13.446;2023-02-15T13:35:56;21.58;;;11.40;;
37517;SDS011;23366;52.498;13.446;2023-02-15T13:41:03;23.45;;;11.23;;
37517;SDS011;23366;52.498;13.446;2023-02-15T13:49:09;25.40;;;9.93;;
37517;SDS011;23366;52.498;13.446;2023-02-15T13:52:06;21.77;;;12.48;;
37517;SDS011;23366;52.498;13.446;2023-02-15T13:55:23;21.52;;;9.88;;
37517;SDS011;23366;52.498;13.446;2023-02-15T14:00:25;30.85;;;11.15;;
37517;SDS011;23366;52.498;13.446;2023-02-15T14:08:53;25.40;;;10.93;;
37517;SDS011;23366;52.498;13.446;2023-02-15T14:19:58;25.85;;;11.52;;
37517;SDS011;23366;52.498;13.446;2023-02-15T14:22:59;24.25;;;11.63;;
37517;SDS011;23366;52.498;13.446;2023-02-15T14:25:42;24.55;;;13.25;;
37517;SDS011;23366;52.498;13.446;2023-02-15T14:28:15;28.55;;;13.82;;
37517;SDS011;23366;52.498;13.446;2023-02-15T14:30:53;21.40;;;9.77;;
37517;SDS011;23366;52.498;13.446;2023-02-15T14:36:05;23.70;;;11.05;;
37517;SDS011;23366;52.498;13.446;2023-02-15T14:41:57;22.98;;;11.27;;
37517;SDS011;23366;52.498;13.446;2023-02-15T14:44:31;19.55;;;11.15;;
37517;SDS011;23366;52.498;13.446;2023-02-15T14:47:07;23.63;;;10.90;;
37517;SDS011;23366;52.498;13.446;2023-02-15T14:49:43;20.30;;;9.93;;
37517;SDS011;23366;52.498;13.446;2023-02-15T14:52:09;19.48;;;10.73;;
37517;SDS011;23366;52.498;13.446;2023-02-15T15:01:55;25.67;;;12.95;;
37517;SDS011;23366;52.498;13.446;2023-02-15T15:04:27;18.65;;;10.85;;
37517;SDS011;23366;52.498;13.446;2023-02-15T15:06:59;24.40;;;10.38;;
37517;SDS011;23366;52.498;13.446;2023-02-15T15:09:29;21.02;;;10.50;;
37517;SDS011;23366;52.498;13.446;2023-02-15T15:12:57;23.67;;;12.23;;
37517;SDS011;23366;52.498;13.446;2023-02-15T15:14:52;22.88;;;12.25;;
37517;SDS011;23366;52.498;13.446;2023-02-15T15:19:58;22.98;;;10.98;;
37517;SDS011;23366;52.498;13.446;2023-02-15T15:22:27;21.10;;;11.63;;
37517;SDS011;23366;52.498;13.446;2023-02-15T15:27:45;23.75;;;10.70;;
37517;SDS011;23366;52.498;13.446;2023-02-15T15:32:54;20.90;;;10.43;;
37517;SDS011;23366;52.498;13.446;2023-02-15T15:35:41;23.02;;;10.75;;
37517;SDS011;23366;52.498;13.446;2023-02-15T15:49:42;18.40;;;8.65;;
37517;SDS011;23366;52.498;13.446;2023-02-15T15:52:15;16.90;;;8.93;;
37517;SDS011;23366;52.498;13.446;2023-02-15T15:54:46;22.23;;;10.90;;
37517;SDS011;23366;52.498;13.446;2023-02-15T15:57:27;26.33;;;10.57;;
37517;SDS011;23366;52.498;13.446;2023-02-15T15:59:56;21.48;;;9.57;;
37517;SDS011;23366;52.498;13.446;2023-02-15T16:02:25;22.45;;;9.75;;
37517;SDS011;23366;52.498;13.446;2023-02-15T16:04:51;22.25;;;10.30;;
37517;SDS011;23366;52.498;13.446;2023-02-15T16:09:59;23.05;;;10.95;;
37517;SDS011;23366;52.498;13.446;2023-02-15T16:12:36;17.17;;;9.82;;
37517;SDS011;23366;52.498;13.446;2023-02-15T16:15:16;20.75;;;10.40;;
37517;SDS011;23366;52.498;13.446;2023-02-15T16:17:43;22.92;;;9.70;;
37517;SDS011;23366;52.498;13.446;2023-02-15T16:20:19;17.83;;;10.30;;
37517;SDS011;23366;52.498;13.446;2023-02-15T16:28:22;18.27;;;9.32;;
37517;SDS011;23366;52.498;13.446;2023-02-15T16:30:54;26.55;;;9.15;;
37517;SDS011;23366;52.498;13.446;2023-02-15T16:33:36;24.38;;;9.75;;
37517;SDS011;23366;52.498;13.446;2023-02-15T16:36:03;20.17;;;10.65;;
37517;SDS011;23366;52.498;13.446;2023-02-15T16:41:10;18.45;;;9.65;;
37517;SDS011;23366;52.498;13.446;2023-02-15T16:43:38;21.13;;;9.52;;
37517;SDS011;23366;52.498;13.446;2023-02-15T16:46:08;16.00;;;8.63;;
37517;SDS011;23366;52.498;13.446;2023-02-15T16:51:08;25.50;;;9.63;;
37517;SDS011;23366;52.498;13.446;2023-02-15T16:53:34;29.92;;;14.70;;
37517;SDS011;23366;52.498;13.446;2023-02-15T16:56:01;104.95;;;33.30;;
37517;SDS011;23366;52.498;13.446;2023-02-15T16:58:30;119.53;;;45.25;;
37517;SDS011;23366;52.498;13.446;2023-02-15T17:01:06;107.55;;;37.30;;
37517;SDS011;23366;52.498;13.446;2023-02-15T17:03:34;63.13;;;26.42;;
37517;SDS011;23366;52.498;13.446;2023-02-15T17:06:02;36.20;;;15.55;;
37517;SDS011;23366;52.498;13.446;2023-02-15T17:13:39;28.63;;;13.70;;
37517;SDS011;23366;52.498;13.446;2023-02-15T17:16:31;33.15;;;15.10;;
37517;SDS011;23366;52.498;13.446;2023-02-15T17:19:02;28.02;;;15.18;;
37517;SDS011;23366;52.498;13.446;2023-02-15T17:21:38;28.60;;;14.38;;
37517;SDS011;23366;52.498;13.446;2023-02-15T17:24:06;35.45;;;16.13;;
37517;SDS011;23366;52.498;13.446;2023-02-15T17:26:48;37.70;;;19.65;;
37517;SDS011;23366;52.498;13.446;2023-02-15T17:32:02;32.55;;;16.17;;
37517;SDS011;23366;52.498;13.446;2023-02-15T17:34:49;33.42;;;15.90;;